SWA2068 KDEN-KSEA
Flight info
| Callsign | SWA2068 |
|---|---|
| Flight time | 2h 24m |
| Altitude | 36000 |
| Route | ZIMMR4 CHNGY PIH PDT CHINS5 |
| Aircraft | B737/M-SADE2E3GIJ4RWZ/LB1D1 |
Departure
| Time | 2026-05-08 04:09 |
|---|---|
| Airport | Denver International Airport (KDEN) |
Arrival
| Time | 2026-05-08 06:33 |
|---|---|
| Airport | Seattle–Tacoma International Airport (KSEA) |
| Time | Latitude | Longitude | Altitude | Speed | Heading |
|---|---|---|---|---|---|
| 2026-05-08 03:48 | 39.86255 | -104.67259 | 5365 ft | 0 kts | 357° |
| 2026-05-08 03:55 | 39.86252 | -104.67259 | 5361 ft | 3 kts | 357° |
| 2026-05-08 03:56 | 39.86229 | -104.67257 | 5364 ft | 1 kts | 357° |
| 2026-05-08 03:56 | 39.86204 | -104.67255 | 5364 ft | 3 kts | 357° |
| 2026-05-08 03:56 | 39.86199 | -104.67255 | 5364 ft | 0 kts | 357° |
| 2026-05-08 03:59 | 39.86211 | -104.67272 | 5362 ft | 6 kts | 289° |
| 2026-05-08 04:00 | 39.86173 | -104.67299 | 5363 ft | 8 kts | 186° |
| 2026-05-08 04:00 | 39.86116 | -104.67305 | 5364 ft | 8 kts | 187° |
| 2026-05-08 04:00 | 39.86071 | -104.67366 | 5364 ft | 12 kts | 256° |
| 2026-05-08 04:00 | 39.86068 | -104.67497 | 5365 ft | 16 kts | 270° |
| 2026-05-08 04:01 | 39.86069 | -104.67644 | 5365 ft | 16 kts | 270° |
| 2026-05-08 04:01 | 39.86070 | -104.67783 | 5365 ft | 15 kts | 270° |
| 2026-05-08 04:01 | 39.86070 | -104.67917 | 5365 ft | 14 kts | 270° |
| 2026-05-08 04:01 | 39.86071 | -104.68043 | 5365 ft | 14 kts | 270° |
| 2026-05-08 04:02 | 39.86048 | -104.68160 | 5362 ft | 13 kts | 239° |
| 2026-05-08 04:02 | 39.86034 | -104.68272 | 5365 ft | 13 kts | 267° |
| 2026-05-08 04:02 | 39.86013 | -104.68379 | 5364 ft | 12 kts | 219° |
| 2026-05-08 04:02 | 39.85929 | -104.68394 | 5365 ft | 12 kts | 180° |
| 2026-05-08 04:03 | 39.85846 | -104.68394 | 5365 ft | 12 kts | 180° |
| 2026-05-08 04:03 | 39.85685 | -104.68396 | 5365 ft | 11 kts | 181° |
| 2026-05-08 04:03 | 39.85605 | -104.68397 | 5364 ft | 12 kts | 180° |
| 2026-05-08 04:04 | 39.85502 | -104.68397 | 5363 ft | 18 kts | 180° |
| 2026-05-08 04:04 | 39.85369 | -104.68398 | 5364 ft | 19 kts | 179° |
| 2026-05-08 04:04 | 39.85253 | -104.68399 | 5363 ft | 10 kts | 183° |
| 2026-05-08 04:04 | 39.85207 | -104.68454 | 5365 ft | 10 kts | 259° |
| 2026-05-08 04:05 | 39.85204 | -104.68540 | 5365 ft | 9 kts | 269° |
| 2026-05-08 04:05 | 39.85203 | -104.68624 | 5365 ft | 9 kts | 269° |
| 2026-05-08 04:05 | 39.85202 | -104.68706 | 5365 ft | 9 kts | 269° |
| 2026-05-08 04:05 | 39.85201 | -104.68786 | 5363 ft | 9 kts | 269° |
| 2026-05-08 04:06 | 39.85199 | -104.68873 | 5365 ft | 12 kts | 269° |
| 2026-05-08 04:06 | 39.85198 | -104.68982 | 5365 ft | 12 kts | 269° |
| 2026-05-08 04:06 | 39.85196 | -104.69085 | 5365 ft | 11 kts | 269° |
| 2026-05-08 04:06 | 39.85196 | -104.69187 | 5365 ft | 11 kts | 272° |
| 2026-05-08 04:07 | 39.85200 | -104.69287 | 5365 ft | 11 kts | 273° |
| 2026-05-08 04:07 | 39.85201 | -104.69383 | 5363 ft | 11 kts | 270° |
| 2026-05-08 04:07 | 39.85201 | -104.69483 | 5364 ft | 11 kts | 269° |
| 2026-05-08 04:07 | 39.85201 | -104.69583 | 5362 ft | 11 kts | 273° |
| 2026-05-08 04:08 | 39.85245 | -104.69654 | 5362 ft | 11 kts | 343° |
| 2026-05-08 04:08 | 39.85353 | -104.69655 | 5364 ft | 33 kts | 0° |
| 2026-05-08 04:08 | 39.85814 | -104.69650 | 5365 ft | 100 kts | 0° |
| 2026-05-08 04:08 | 39.86712 | -104.69638 | 5364 ft | 156 kts | 0° |
| 2026-05-08 04:09 | 39.87919 | -104.69706 | 5628 ft | 182 kts | 359° |
| 2026-05-08 04:09 | 39.89138 | -104.69739 | 6555 ft | 171 kts | 356° |
| 2026-05-08 04:09 | 39.90358 | -104.69731 | 7094 ft | 183 kts | 355° |
| 2026-05-08 04:09 | 39.91642 | -104.70241 | 7315 ft | 206 kts | 322° |
| 2026-05-08 04:10 | 39.92678 | -104.71649 | 7543 ft | 230 kts | 298° |
| 2026-05-08 04:10 | 39.93114 | -104.73765 | 7781 ft | 260 kts | 274° |
| 2026-05-08 04:10 | 39.93185 | -104.76193 | 8440 ft | 271 kts | 274° |
| 2026-05-08 04:10 | 39.93306 | -104.78649 | 9396 ft | 273 kts | 275° |
| 2026-05-08 04:11 | 39.93438 | -104.81129 | 10338 ft | 277 kts | 276° |
| 2026-05-08 04:11 | 39.93577 | -104.83738 | 10745 ft | 302 kts | 276° |
| 2026-05-08 04:11 | 39.93724 | -104.86542 | 11408 ft | 315 kts | 276° |
| 2026-05-08 04:11 | 39.93868 | -104.89394 | 12385 ft | 316 kts | 276° |
| 2026-05-08 04:12 | 39.94008 | -104.92220 | 13397 ft | 318 kts | 276° |
| 2026-05-08 04:12 | 39.94149 | -104.95115 | 14269 ft | 322 kts | 276° |
| 2026-05-08 04:12 | 39.94290 | -104.98043 | 15136 ft | 326 kts | 276° |
| 2026-05-08 04:12 | 39.94433 | -105.01007 | 16074 ft | 330 kts | 276° |
| 2026-05-08 04:13 | 39.94575 | -105.04007 | 16934 ft | 334 kts | 276° |
| 2026-05-08 04:13 | 39.94719 | -105.07049 | 17812 ft | 338 kts | 276° |
| 2026-05-08 04:13 | 39.94863 | -105.10121 | 18625 ft | 342 kts | 276° |
| 2026-05-08 04:13 | 39.95009 | -105.13233 | 19378 ft | 345 kts | 276° |
| 2026-05-08 04:14 | 39.95154 | -105.16371 | 20159 ft | 348 kts | 276° |
| 2026-05-08 04:14 | 39.95299 | -105.19531 | 20923 ft | 351 kts | 276° |
| 2026-05-08 04:14 | 39.95444 | -105.22687 | 21664 ft | 355 kts | 276° |
| 2026-05-08 04:14 | 39.95591 | -105.25915 | 22403 ft | 358 kts | 275° |
| 2026-05-08 04:15 | 39.95739 | -105.29173 | 23090 ft | 362 kts | 276° |
| 2026-05-08 04:15 | 39.95888 | -105.32495 | 23584 ft | 372 kts | 276° |
| 2026-05-08 04:15 | 39.96040 | -105.35879 | 24138 ft | 375 kts | 276° |
| 2026-05-08 04:15 | 39.96191 | -105.39276 | 24822 ft | 375 kts | 276° |
| 2026-05-08 04:16 | 39.96340 | -105.42681 | 25421 ft | 378 kts | 276° |
| 2026-05-08 04:16 | 39.96491 | -105.46118 | 25954 ft | 381 kts | 276° |
| 2026-05-08 04:16 | 39.96640 | -105.49546 | 26509 ft | 384 kts | 275° |
| 2026-05-08 04:16 | 39.96791 | -105.53042 | 27098 ft | 387 kts | 275° |
| 2026-05-08 04:17 | 39.96942 | -105.56557 | 27636 ft | 389 kts | 275° |
| 2026-05-08 04:17 | 39.97094 | -105.60091 | 28159 ft | 392 kts | 275° |
| 2026-05-08 04:17 | 39.97244 | -105.63647 | 28672 ft | 395 kts | 275° |
| 2026-05-08 04:17 | 39.97397 | -105.67244 | 29041 ft | 401 kts | 276° |
| 2026-05-08 04:18 | 39.97577 | -105.70932 | 29131 ft | 413 kts | 277° |
| 2026-05-08 04:18 | 39.97772 | -105.74713 | 29237 ft | 424 kts | 277° |
| 2026-05-08 04:18 | 39.97975 | -105.78598 | 29384 ft | 434 kts | 277° |
| 2026-05-08 04:18 | 39.98178 | -105.82550 | 29599 ft | 440 kts | 276° |
| 2026-05-08 04:19 | 39.98378 | -105.86541 | 29948 ft | 443 kts | 276° |
| 2026-05-08 04:19 | 39.98576 | -105.90555 | 30397 ft | 442 kts | 276° |
| 2026-05-08 04:19 | 39.98769 | -105.94528 | 30923 ft | 438 kts | 276° |
| 2026-05-08 04:19 | 39.98960 | -105.98483 | 31459 ft | 435 kts | 276° |
| 2026-05-08 04:20 | 39.99148 | -106.02416 | 31952 ft | 433 kts | 277° |
| 2026-05-08 04:20 | 39.99334 | -106.06315 | 32452 ft | 430 kts | 277° |
| 2026-05-08 04:20 | 39.99520 | -106.10205 | 32891 ft | 429 kts | 277° |
| 2026-05-08 04:20 | 39.99703 | -106.14086 | 33325 ft | 428 kts | 278° |
| 2026-05-08 04:21 | 39.99885 | -106.17954 | 33765 ft | 426 kts | 278° |
| 2026-05-08 04:21 | 40.00065 | -106.21804 | 34156 ft | 425 kts | 278° |
| 2026-05-08 04:21 | 40.00243 | -106.25646 | 34485 ft | 424 kts | 278° |
| 2026-05-08 04:21 | 40.00420 | -106.29493 | 34806 ft | 424 kts | 278° |
| 2026-05-08 04:22 | 40.00596 | -106.33320 | 35142 ft | 423 kts | 278° |
| 2026-05-08 04:22 | 40.00768 | -106.37145 | 35446 ft | 422 kts | 278° |
| 2026-05-08 04:22 | 40.00953 | -106.40954 | 35746 ft | 420 kts | 281° |
| 2026-05-08 04:22 | 40.01489 | -106.44659 | 36035 ft | 414 kts | 289° |
| 2026-05-08 04:23 | 40.03629 | -106.51664 | 35992 ft | 415 kts | 303° |
| 2026-05-08 04:23 | 40.06741 | -106.57914 | 36033 ft | 407 kts | 306° |
| 2026-05-08 04:24 | 40.09906 | -106.64029 | 36020 ft | 406 kts | 306° |
| 2026-05-08 04:24 | 40.13045 | -106.70142 | 36020 ft | 405 kts | 306° |
| 2026-05-08 04:25 | 40.16159 | -106.76267 | 36018 ft | 404 kts | 306° |
| 2026-05-08 04:25 | 40.19233 | -106.82346 | 36029 ft | 403 kts | 306° |
| 2026-05-08 04:26 | 40.22340 | -106.88519 | 36025 ft | 404 kts | 306° |
| 2026-05-08 04:26 | 40.25425 | -106.94646 | 36046 ft | 406 kts | 306° |
| 2026-05-08 04:27 | 40.28535 | -107.00838 | 36061 ft | 408 kts | 306° |
| 2026-05-08 04:27 | 40.31657 | -107.07064 | 36064 ft | 409 kts | 306° |
| 2026-05-08 04:28 | 40.34773 | -107.13293 | 36101 ft | 408 kts | 306° |
| 2026-05-08 04:28 | 40.37879 | -107.19519 | 36119 ft | 408 kts | 306° |
| 2026-05-08 04:29 | 40.40980 | -107.25741 | 36130 ft | 407 kts | 305° |
| 2026-05-08 04:29 | 40.44077 | -107.31973 | 36128 ft | 407 kts | 306° |
| 2026-05-08 04:30 | 40.47163 | -107.38190 | 36102 ft | 406 kts | 306° |
| 2026-05-08 04:30 | 40.50237 | -107.44398 | 36108 ft | 405 kts | 306° |
| 2026-05-08 04:31 | 40.53301 | -107.50603 | 36101 ft | 404 kts | 306° |
| 2026-05-08 04:31 | 40.56348 | -107.56783 | 36106 ft | 404 kts | 306° |
| 2026-05-08 04:32 | 40.59402 | -107.62987 | 36094 ft | 404 kts | 306° |
| 2026-05-08 04:32 | 40.62448 | -107.69189 | 36086 ft | 403 kts | 307° |
| 2026-05-08 04:33 | 40.65481 | -107.75376 | 36007 ft | 401 kts | 307° |
| 2026-05-08 04:33 | 40.68495 | -107.81539 | 35970 ft | 400 kts | 307° |
| 2026-05-08 04:34 | 40.71503 | -107.87698 | 35965 ft | 399 kts | 307° |
| 2026-05-08 04:34 | 40.74483 | -107.93812 | 35965 ft | 399 kts | 307° |
| 2026-05-08 04:35 | 40.77482 | -107.99977 | 35993 ft | 399 kts | 307° |
| 2026-05-08 04:35 | 40.80474 | -108.06141 | 35957 ft | 399 kts | 307° |
| 2026-05-08 04:36 | 40.83464 | -108.12315 | 35965 ft | 398 kts | 307° |
| 2026-05-08 04:36 | 40.86444 | -108.18479 | 35958 ft | 398 kts | 307° |
| 2026-05-08 04:37 | 40.89416 | -108.24638 | 35960 ft | 397 kts | 307° |
| 2026-05-08 04:37 | 40.92380 | -108.30794 | 35976 ft | 397 kts | 307° |
| 2026-05-08 04:38 | 40.94844 | -108.35923 | 35977 ft | 397 kts | 307° |
| 2026-05-08 04:38 | 40.97800 | -108.42084 | 35967 ft | 397 kts | 307° |
| 2026-05-08 04:39 | 41.00751 | -108.48247 | 35960 ft | 397 kts | 307° |
| 2026-05-08 04:39 | 41.03707 | -108.54432 | 35972 ft | 397 kts | 307° |
| 2026-05-08 04:40 | 41.06659 | -108.60623 | 35965 ft | 398 kts | 307° |
| 2026-05-08 04:40 | 41.09616 | -108.66836 | 35983 ft | 398 kts | 307° |
| 2026-05-08 04:41 | 41.12566 | -108.73049 | 35963 ft | 398 kts | 307° |
| 2026-05-08 04:41 | 41.15504 | -108.79251 | 35949 ft | 397 kts | 307° |
| 2026-05-08 04:42 | 41.18435 | -108.85452 | 35970 ft | 396 kts | 307° |
| 2026-05-08 04:42 | 41.21345 | -108.91613 | 35974 ft | 397 kts | 307° |
| 2026-05-08 04:43 | 41.24274 | -108.97828 | 35969 ft | 397 kts | 307° |
| 2026-05-08 04:43 | 41.27201 | -109.04051 | 35966 ft | 397 kts | 307° |
| 2026-05-08 04:44 | 41.30122 | -109.10280 | 35972 ft | 396 kts | 307° |
| 2026-05-08 04:44 | 41.33038 | -109.16508 | 35966 ft | 397 kts | 307° |
| 2026-05-08 04:45 | 41.35953 | -109.22745 | 35979 ft | 397 kts | 307° |
| 2026-05-08 04:45 | 41.38866 | -109.28992 | 35983 ft | 397 kts | 307° |
| 2026-05-08 04:46 | 41.41749 | -109.35189 | 35969 ft | 396 kts | 307° |
| 2026-05-08 04:46 | 41.44663 | -109.41464 | 35968 ft | 395 kts | 307° |
| 2026-05-08 04:47 | 41.47553 | -109.47701 | 35936 ft | 395 kts | 307° |
| 2026-05-08 04:47 | 41.50437 | -109.53937 | 35954 ft | 395 kts | 307° |
| 2026-05-08 04:48 | 41.53304 | -109.60148 | 35969 ft | 395 kts | 307° |
| 2026-05-08 04:48 | 41.56181 | -109.66395 | 35957 ft | 395 kts | 307° |
| 2026-05-08 04:49 | 41.59050 | -109.72638 | 35956 ft | 394 kts | 307° |
| 2026-05-08 04:49 | 41.61909 | -109.78872 | 35958 ft | 394 kts | 307° |
| 2026-05-08 04:50 | 41.64767 | -109.85114 | 35943 ft | 394 kts | 307° |
| 2026-05-08 04:50 | 41.67631 | -109.91384 | 35970 ft | 395 kts | 307° |
| 2026-05-08 04:51 | 41.70496 | -109.97668 | 35955 ft | 395 kts | 307° |
| 2026-05-08 04:51 | 41.73353 | -110.03950 | 35958 ft | 395 kts | 307° |
| 2026-05-08 04:52 | 41.76208 | -110.10240 | 35969 ft | 395 kts | 307° |
| 2026-05-08 04:52 | 41.79060 | -110.16535 | 35995 ft | 395 kts | 307° |
| 2026-05-08 04:53 | 41.81907 | -110.22834 | 36070 ft | 395 kts | 307° |
| 2026-05-08 04:53 | 41.84750 | -110.29138 | 36079 ft | 395 kts | 306° |
| 2026-05-08 04:54 | 41.87590 | -110.35445 | 36108 ft | 394 kts | 306° |
| 2026-05-08 04:54 | 41.90368 | -110.41630 | 36140 ft | 394 kts | 306° |
| 2026-05-08 04:55 | 41.93193 | -110.47934 | 36096 ft | 394 kts | 306° |
| 2026-05-08 04:55 | 41.96022 | -110.54255 | 36137 ft | 396 kts | 306° |
| 2026-05-08 04:56 | 41.98836 | -110.60574 | 36117 ft | 398 kts | 306° |
| 2026-05-08 04:56 | 42.00257 | -110.63767 | 35979 ft | 398 kts | 306° |
| 2026-05-08 04:56 | 42.01683 | -110.66964 | 35977 ft | 398 kts | 306° |
| 2026-05-08 04:57 | 42.04526 | -110.73351 | 35976 ft | 398 kts | 306° |
| 2026-05-08 04:57 | 42.07361 | -110.79741 | 35967 ft | 398 kts | 306° |
| 2026-05-08 04:58 | 42.10191 | -110.86138 | 35984 ft | 398 kts | 306° |
| 2026-05-08 04:58 | 42.13025 | -110.92553 | 35964 ft | 399 kts | 306° |
| 2026-05-08 04:59 | 42.15857 | -110.98980 | 35965 ft | 399 kts | 306° |
| 2026-05-08 04:59 | 42.18686 | -111.05414 | 35950 ft | 399 kts | 306° |
| 2026-05-08 05:00 | 42.21512 | -111.11852 | 35956 ft | 398 kts | 306° |
| 2026-05-08 05:00 | 42.24327 | -111.18286 | 35948 ft | 398 kts | 306° |
| 2026-05-08 05:01 | 42.27127 | -111.24690 | 35947 ft | 399 kts | 305° |
| 2026-05-08 05:01 | 42.29961 | -111.31192 | 35951 ft | 399 kts | 305° |
| 2026-05-08 05:02 | 42.32759 | -111.37624 | 35953 ft | 399 kts | 305° |
| 2026-05-08 05:02 | 42.35569 | -111.44095 | 35948 ft | 399 kts | 305° |
| 2026-05-08 05:03 | 42.38372 | -111.50568 | 35963 ft | 399 kts | 305° |
| 2026-05-08 05:03 | 42.41171 | -111.57050 | 35955 ft | 398 kts | 305° |
| 2026-05-08 05:04 | 42.43964 | -111.63532 | 35943 ft | 399 kts | 305° |
| 2026-05-08 05:04 | 42.46756 | -111.70019 | 35942 ft | 399 kts | 305° |
| 2026-05-08 05:05 | 42.49544 | -111.76513 | 35945 ft | 398 kts | 305° |
| 2026-05-08 05:05 | 42.52320 | -111.82995 | 35927 ft | 398 kts | 305° |
| 2026-05-08 05:06 | 42.55104 | -111.89477 | 35930 ft | 397 kts | 305° |
| 2026-05-08 05:06 | 42.57869 | -111.95975 | 35931 ft | 399 kts | 305° |
| 2026-05-08 05:07 | 42.60623 | -112.02461 | 35931 ft | 400 kts | 305° |
| 2026-05-08 05:07 | 42.63418 | -112.09048 | 35917 ft | 399 kts | 304° |
| 2026-05-08 05:08 | 42.66180 | -112.15570 | 35905 ft | 398 kts | 304° |
| 2026-05-08 05:08 | 42.68943 | -112.22106 | 35922 ft | 399 kts | 304° |
| 2026-05-08 05:09 | 42.71692 | -112.28626 | 35911 ft | 401 kts | 304° |
| 2026-05-08 05:09 | 42.74458 | -112.35216 | 35919 ft | 401 kts | 304° |
| 2026-05-08 05:10 | 42.78619 | -112.45117 | 35917 ft | 402 kts | 304° |
| 2026-05-08 05:11 | 42.81382 | -112.51721 | 35888 ft | 401 kts | 304° |
| 2026-05-08 05:11 | 42.84145 | -112.58339 | 35900 ft | 402 kts | 304° |
| 2026-05-08 05:12 | 42.86910 | -112.64961 | 35899 ft | 401 kts | 305° |
| 2026-05-08 05:12 | 42.89969 | -112.71283 | 36017 ft | 399 kts | 308° |
| 2026-05-08 05:13 | 42.93106 | -112.77506 | 35988 ft | 398 kts | 308° |
| 2026-05-08 05:13 | 42.96237 | -112.83742 | 35968 ft | 398 kts | 308° |
| 2026-05-08 05:14 | 42.99347 | -112.89982 | 35945 ft | 397 kts | 308° |
| 2026-05-08 05:14 | 43.02447 | -112.96232 | 35919 ft | 397 kts | 308° |
| 2026-05-08 05:15 | 43.05541 | -113.02487 | 35888 ft | 397 kts | 308° |
| 2026-05-08 05:15 | 43.08627 | -113.08742 | 35877 ft | 397 kts | 308° |
| 2026-05-08 05:16 | 43.11712 | -113.15007 | 35875 ft | 397 kts | 308° |
| 2026-05-08 05:16 | 43.14791 | -113.21272 | 35868 ft | 397 kts | 307° |
| 2026-05-08 05:17 | 43.17876 | -113.27561 | 35874 ft | 398 kts | 307° |
| 2026-05-08 05:17 | 43.20962 | -113.33869 | 35865 ft | 399 kts | 307° |
| 2026-05-08 05:18 | 43.24051 | -113.40195 | 35855 ft | 399 kts | 307° |
| 2026-05-08 05:18 | 43.27121 | -113.46498 | 35856 ft | 400 kts | 307° |
| 2026-05-08 05:19 | 43.30207 | -113.52844 | 35852 ft | 400 kts | 307° |
| 2026-05-08 05:19 | 43.33290 | -113.59199 | 35861 ft | 400 kts | 307° |
| 2026-05-08 05:20 | 43.36371 | -113.65564 | 35860 ft | 401 kts | 307° |
| 2026-05-08 05:20 | 43.39460 | -113.71959 | 35860 ft | 401 kts | 307° |
| 2026-05-08 05:21 | 43.42542 | -113.78354 | 35863 ft | 401 kts | 307° |
| 2026-05-08 05:21 | 43.45621 | -113.84756 | 35866 ft | 401 kts | 306° |
| 2026-05-08 05:22 | 43.48698 | -113.91161 | 35926 ft | 401 kts | 306° |
| 2026-05-08 05:22 | 43.51771 | -113.97582 | 35978 ft | 402 kts | 306° |
| 2026-05-08 05:23 | 43.54852 | -114.04033 | 36010 ft | 403 kts | 306° |
| 2026-05-08 05:23 | 43.57935 | -114.10498 | 36031 ft | 404 kts | 306° |
| 2026-05-08 05:23 | 43.59455 | -114.13692 | 35910 ft | 403 kts | 306° |
| 2026-05-08 05:24 | 43.60992 | -114.16928 | 35913 ft | 404 kts | 306° |
| 2026-05-08 05:24 | 43.64088 | -114.23456 | 35926 ft | 403 kts | 306° |
| 2026-05-08 05:25 | 43.67171 | -114.29804 | 35950 ft | 398 kts | 307° |
| 2026-05-08 05:25 | 43.70210 | -114.36225 | 35937 ft | 401 kts | 305° |
| 2026-05-08 05:26 | 43.73232 | -114.42719 | 35959 ft | 402 kts | 305° |
| 2026-05-08 05:26 | 43.76271 | -114.49246 | 35967 ft | 404 kts | 305° |
| 2026-05-08 05:27 | 43.79339 | -114.55778 | 35951 ft | 406 kts | 305° |
| 2026-05-08 05:27 | 43.81894 | -114.61241 | 35967 ft | 407 kts | 305° |
| 2026-05-08 05:28 | 43.84978 | -114.67841 | 35988 ft | 409 kts | 305° |
| 2026-05-08 05:28 | 43.88073 | -114.74467 | 35983 ft | 410 kts | 305° |
| 2026-05-08 05:29 | 43.91165 | -114.81117 | 35986 ft | 410 kts | 305° |
| 2026-05-08 05:29 | 43.94252 | -114.87770 | 35991 ft | 410 kts | 305° |
| 2026-05-08 05:30 | 43.97336 | -114.94430 | 35984 ft | 410 kts | 305° |
| 2026-05-08 05:30 | 44.00421 | -115.01085 | 35974 ft | 410 kts | 305° |
| 2026-05-08 05:31 | 44.03486 | -115.07748 | 35979 ft | 408 kts | 304° |
| 2026-05-08 05:31 | 44.06560 | -115.14386 | 35985 ft | 408 kts | 305° |
| 2026-05-08 05:32 | 44.09621 | -115.20999 | 35986 ft | 406 kts | 304° |
| 2026-05-08 05:32 | 44.12650 | -115.27661 | 35984 ft | 408 kts | 304° |
| 2026-05-08 05:33 | 44.15696 | -115.34360 | 35986 ft | 411 kts | 304° |
| 2026-05-08 05:33 | 44.18753 | -115.41116 | 35960 ft | 412 kts | 304° |
| 2026-05-08 05:34 | 44.21823 | -115.47847 | 35994 ft | 411 kts | 304° |
| 2026-05-08 05:34 | 44.24864 | -115.54537 | 35999 ft | 411 kts | 304° |
| 2026-05-08 05:35 | 44.27918 | -115.61278 | 35985 ft | 411 kts | 304° |
| 2026-05-08 05:35 | 44.30969 | -115.68033 | 35995 ft | 411 kts | 304° |
| 2026-05-08 05:36 | 44.34009 | -115.74784 | 36005 ft | 410 kts | 304° |
| 2026-05-08 05:36 | 44.37036 | -115.81517 | 35982 ft | 409 kts | 304° |
| 2026-05-08 05:37 | 44.40055 | -115.88247 | 35993 ft | 409 kts | 304° |
| 2026-05-08 05:37 | 44.43072 | -115.94999 | 35999 ft | 410 kts | 304° |
| 2026-05-08 05:38 | 44.46098 | -116.01779 | 35990 ft | 411 kts | 303° |
| 2026-05-08 05:38 | 44.49126 | -116.08579 | 35996 ft | 411 kts | 303° |
| 2026-05-08 05:39 | 44.52150 | -116.15384 | 36011 ft | 411 kts | 303° |
| 2026-05-08 05:39 | 44.55173 | -116.22206 | 36018 ft | 413 kts | 303° |
| 2026-05-08 05:40 | 44.58203 | -116.29058 | 36014 ft | 414 kts | 303° |
| 2026-05-08 05:40 | 44.61236 | -116.35935 | 36018 ft | 414 kts | 303° |
| 2026-05-08 05:41 | 44.64259 | -116.42803 | 36019 ft | 414 kts | 303° |
| 2026-05-08 05:41 | 44.67276 | -116.49678 | 36015 ft | 413 kts | 303° |
| 2026-05-08 05:42 | 44.70285 | -116.56549 | 36020 ft | 412 kts | 303° |
| 2026-05-08 05:42 | 44.73267 | -116.63374 | 36027 ft | 412 kts | 303° |
| 2026-05-08 05:43 | 44.76254 | -116.70231 | 36031 ft | 411 kts | 303° |
| 2026-05-08 05:43 | 44.79237 | -116.77092 | 36010 ft | 411 kts | 302° |
| 2026-05-08 05:44 | 44.82222 | -116.83971 | 36040 ft | 411 kts | 302° |
| 2026-05-08 05:44 | 44.85207 | -116.90874 | 36020 ft | 413 kts | 302° |
| 2026-05-08 05:45 | 44.88197 | -116.97810 | 36026 ft | 414 kts | 302° |
| 2026-05-08 05:45 | 44.91193 | -117.04761 | 36034 ft | 415 kts | 302° |
| 2026-05-08 05:46 | 44.94183 | -117.11720 | 36043 ft | 415 kts | 302° |
| 2026-05-08 05:46 | 44.97174 | -117.18700 | 36050 ft | 415 kts | 302° |
| 2026-05-08 05:47 | 45.00152 | -117.25675 | 36048 ft | 414 kts | 302° |
| 2026-05-08 05:47 | 45.03130 | -117.32658 | 36061 ft | 415 kts | 302° |
| 2026-05-08 05:48 | 45.06105 | -117.39655 | 36069 ft | 415 kts | 302° |
| 2026-05-08 05:48 | 45.09083 | -117.46665 | 36067 ft | 416 kts | 302° |
| 2026-05-08 05:49 | 45.12059 | -117.53695 | 36065 ft | 416 kts | 302° |
| 2026-05-08 05:49 | 45.15027 | -117.60731 | 36059 ft | 416 kts | 302° |
| 2026-05-08 05:50 | 45.17974 | -117.67732 | 36068 ft | 416 kts | 302° |
| 2026-05-08 05:50 | 45.20937 | -117.74785 | 36066 ft | 416 kts | 302° |
| 2026-05-08 05:51 | 45.23895 | -117.81845 | 36065 ft | 416 kts | 301° |
| 2026-05-08 05:51 | 45.26844 | -117.88902 | 36064 ft | 416 kts | 301° |
| 2026-05-08 05:52 | 45.29788 | -117.95963 | 36071 ft | 415 kts | 301° |
| 2026-05-08 05:52 | 45.32723 | -118.03022 | 36062 ft | 415 kts | 301° |
| 2026-05-08 05:53 | 45.35655 | -118.10091 | 36069 ft | 415 kts | 301° |
| 2026-05-08 05:53 | 45.38578 | -118.17158 | 36067 ft | 415 kts | 301° |
| 2026-05-08 05:54 | 45.41503 | -118.24245 | 36060 ft | 415 kts | 301° |
| 2026-05-08 05:54 | 45.44419 | -118.31328 | 36060 ft | 415 kts | 301° |
| 2026-05-08 05:55 | 45.47318 | -118.38390 | 36072 ft | 416 kts | 301° |
| 2026-05-08 05:55 | 45.50232 | -118.45504 | 36070 ft | 416 kts | 301° |
| 2026-05-08 05:56 | 45.53145 | -118.52634 | 36063 ft | 416 kts | 301° |
| 2026-05-08 05:56 | 45.56058 | -118.59785 | 36029 ft | 417 kts | 301° |
| 2026-05-08 05:57 | 45.58969 | -118.66947 | 36037 ft | 417 kts | 301° |
| 2026-05-08 05:57 | 45.61872 | -118.74109 | 36016 ft | 417 kts | 300° |
| 2026-05-08 05:58 | 45.64775 | -118.81290 | 36014 ft | 417 kts | 300° |
| 2026-05-08 05:58 | 45.67670 | -118.88467 | 36017 ft | 417 kts | 300° |
| 2026-05-08 05:59 | 45.70676 | -118.95548 | 35992 ft | 416 kts | 307° |
| 2026-05-08 05:59 | 45.74398 | -119.01883 | 35992 ft | 416 kts | 310° |
| 2026-05-08 06:00 | 45.78221 | -119.08112 | 35986 ft | 416 kts | 310° |
| 2026-05-08 06:00 | 45.82003 | -119.14402 | 35988 ft | 416 kts | 310° |
| 2026-05-08 06:01 | 45.85748 | -119.20728 | 35989 ft | 416 kts | 309° |
| 2026-05-08 06:01 | 45.89480 | -119.27073 | 35990 ft | 416 kts | 309° |
| 2026-05-08 06:02 | 45.93210 | -119.33429 | 35993 ft | 416 kts | 309° |
| 2026-05-08 06:02 | 45.96940 | -119.39798 | 35983 ft | 416 kts | 309° |
| 2026-05-08 06:03 | 46.00660 | -119.46165 | 35975 ft | 416 kts | 309° |
| 2026-05-08 06:03 | 46.04380 | -119.52545 | 35965 ft | 416 kts | 309° |
| 2026-05-08 06:04 | 46.08101 | -119.58944 | 35956 ft | 416 kts | 309° |
| 2026-05-08 06:04 | 46.11815 | -119.65344 | 35950 ft | 416 kts | 309° |
| 2026-05-08 06:05 | 46.15525 | -119.71751 | 35947 ft | 416 kts | 309° |
| 2026-05-08 06:05 | 46.19236 | -119.78174 | 35954 ft | 416 kts | 309° |
| 2026-05-08 06:06 | 46.22916 | -119.84560 | 35937 ft | 417 kts | 309° |
| 2026-05-08 06:06 | 46.26621 | -119.91004 | 35940 ft | 417 kts | 309° |
| 2026-05-08 06:07 | 46.30323 | -119.97456 | 35943 ft | 417 kts | 309° |
| 2026-05-08 06:07 | 46.34021 | -120.03917 | 35955 ft | 417 kts | 308° |
| 2026-05-08 06:08 | 46.37716 | -120.10388 | 35944 ft | 417 kts | 308° |
| 2026-05-08 06:08 | 46.41407 | -120.16868 | 35954 ft | 417 kts | 308° |
| 2026-05-08 06:09 | 46.45095 | -120.23359 | 35978 ft | 417 kts | 308° |
| 2026-05-08 06:09 | 46.48785 | -120.29870 | 35979 ft | 417 kts | 308° |
| 2026-05-08 06:10 | 46.52467 | -120.36381 | 35998 ft | 417 kts | 308° |
| 2026-05-08 06:10 | 46.56149 | -120.42904 | 35991 ft | 417 kts | 308° |
| 2026-05-08 06:11 | 46.59636 | -120.49630 | 35993 ft | 416 kts | 304° |
| 2026-05-08 06:11 | 46.62894 | -120.56584 | 36005 ft | 416 kts | 303° |
| 2026-05-08 06:12 | 46.66164 | -120.63553 | 36002 ft | 417 kts | 303° |
| 2026-05-08 06:12 | 46.69466 | -120.70518 | 35997 ft | 417 kts | 303° |
| 2026-05-08 06:13 | 46.72748 | -120.77432 | 35999 ft | 418 kts | 303° |
| 2026-05-08 06:13 | 46.75533 | -120.83311 | 35357 ft | 427 kts | 303° |
| 2026-05-08 06:13 | 46.77757 | -120.88015 | 34367 ft | 425 kts | 303° |
| 2026-05-08 06:14 | 46.79435 | -120.91570 | 33467 ft | 426 kts | 303° |
| 2026-05-08 06:14 | 46.80570 | -120.93978 | 32855 ft | 427 kts | 303° |
| 2026-05-08 06:14 | 46.82258 | -120.97561 | 31833 ft | 430 kts | 303° |
| 2026-05-08 06:14 | 46.83957 | -121.01175 | 30826 ft | 433 kts | 303° |
| 2026-05-08 06:15 | 46.85664 | -121.04809 | 29699 ft | 436 kts | 303° |
| 2026-05-08 06:15 | 46.87362 | -121.08430 | 28475 ft | 438 kts | 303° |
| 2026-05-08 06:15 | 46.89108 | -121.12158 | 27552 ft | 435 kts | 303° |
| 2026-05-08 06:15 | 46.90805 | -121.15784 | 26681 ft | 430 kts | 303° |
| 2026-05-08 06:16 | 46.92478 | -121.19363 | 25908 ft | 424 kts | 302° |
| 2026-05-08 06:16 | 46.94138 | -121.22919 | 25078 ft | 420 kts | 302° |
| 2026-05-08 06:16 | 46.95776 | -121.26435 | 24297 ft | 416 kts | 302° |
| 2026-05-08 06:16 | 46.97402 | -121.29927 | 23443 ft | 414 kts | 302° |
| 2026-05-08 06:17 | 47.00587 | -121.36785 | 21738 ft | 405 kts | 302° |
| 2026-05-08 06:17 | 47.02158 | -121.40175 | 21002 ft | 400 kts | 302° |
| 2026-05-08 06:17 | 47.03679 | -121.43456 | 20903 ft | 379 kts | 302° |
| 2026-05-08 06:18 | 47.05130 | -121.46590 | 20729 ft | 363 kts | 302° |
| 2026-05-08 06:18 | 47.06518 | -121.49591 | 20581 ft | 348 kts | 302° |
| 2026-05-08 06:18 | 47.07859 | -121.52498 | 20347 ft | 339 kts | 302° |
| 2026-05-08 06:18 | 47.09156 | -121.55312 | 20364 ft | 331 kts | 302° |
| 2026-05-08 06:19 | 47.10472 | -121.58166 | 20405 ft | 344 kts | 302° |
| 2026-05-08 06:19 | 47.11825 | -121.61102 | 20391 ft | 348 kts | 302° |
| 2026-05-08 06:19 | 47.13177 | -121.64022 | 20322 ft | 343 kts | 302° |
| 2026-05-08 06:19 | 47.14504 | -121.66879 | 19862 ft | 335 kts | 302° |
| 2026-05-08 06:20 | 47.15809 | -121.69689 | 19024 ft | 335 kts | 302° |
| 2026-05-08 06:20 | 47.17127 | -121.72540 | 18125 ft | 337 kts | 302° |
| 2026-05-08 06:20 | 47.18432 | -121.75380 | 17300 ft | 334 kts | 302° |
| 2026-05-08 06:20 | 47.19725 | -121.78201 | 16531 ft | 330 kts | 302° |
| 2026-05-08 06:21 | 47.21000 | -121.80991 | 15785 ft | 327 kts | 302° |
| 2026-05-08 06:21 | 47.22265 | -121.83761 | 14994 ft | 326 kts | 302° |
| 2026-05-08 06:21 | 47.23517 | -121.86508 | 14562 ft | 318 kts | 302° |
| 2026-05-08 06:21 | 47.24742 | -121.89199 | 14274 ft | 316 kts | 302° |
| 2026-05-08 06:22 | 47.25974 | -121.91908 | 14056 ft | 320 kts | 302° |
| 2026-05-08 06:22 | 47.27214 | -121.94648 | 13794 ft | 324 kts | 302° |
| 2026-05-08 06:22 | 47.28466 | -121.97420 | 13519 ft | 324 kts | 302° |
| 2026-05-08 06:22 | 47.29707 | -122.00170 | 13257 ft | 321 kts | 302° |
| 2026-05-08 06:23 | 47.30939 | -122.02902 | 13011 ft | 319 kts | 302° |
| 2026-05-08 06:23 | 47.32158 | -122.05607 | 12762 ft | 317 kts | 302° |
| 2026-05-08 06:23 | 47.33376 | -122.08311 | 12524 ft | 315 kts | 302° |
| 2026-05-08 06:23 | 47.34586 | -122.10999 | 12289 ft | 312 kts | 302° |
| 2026-05-08 06:24 | 47.35764 | -122.13613 | 12046 ft | 299 kts | 302° |
| 2026-05-08 06:24 | 47.36889 | -122.16103 | 11884 ft | 287 kts | 302° |
| 2026-05-08 06:24 | 47.38063 | -122.18449 | 11718 ft | 285 kts | 316° |
| 2026-05-08 06:24 | 47.39852 | -122.19734 | 11605 ft | 295 kts | 350° |
| 2026-05-08 06:25 | 47.41924 | -122.19949 | 11499 ft | 302 kts | 355° |
| 2026-05-08 06:25 | 47.44005 | -122.19946 | 11340 ft | 303 kts | 0° |
| 2026-05-08 06:25 | 47.46100 | -122.19748 | 11183 ft | 300 kts | 2° |
| 2026-05-08 06:25 | 47.48165 | -122.19528 | 10861 ft | 294 kts | 1° |
| 2026-05-08 06:26 | 47.50205 | -122.19398 | 10338 ft | 294 kts | 359° |
| 2026-05-08 06:26 | 47.52252 | -122.19378 | 9822 ft | 294 kts | 357° |
| 2026-05-08 06:26 | 47.54249 | -122.19453 | 9602 ft | 281 kts | 355° |
| 2026-05-08 06:26 | 47.56189 | -122.19592 | 9188 ft | 277 kts | 354° |
| 2026-05-08 06:27 | 47.58111 | -122.19762 | 8717 ft | 276 kts | 355° |
| 2026-05-08 06:27 | 47.60027 | -122.19913 | 8258 ft | 275 kts | 356° |
| 2026-05-08 06:27 | 47.61941 | -122.19991 | 7803 ft | 275 kts | 358° |
| 2026-05-08 06:27 | 47.63844 | -122.20065 | 7377 ft | 272 kts | 354° |
| 2026-05-08 06:28 | 47.65572 | -122.20993 | 7064 ft | 261 kts | 318° |
| 2026-05-08 06:28 | 47.66519 | -122.23079 | 6966 ft | 236 kts | 282° |
| 2026-05-08 06:28 | 47.66465 | -122.25385 | 6722 ft | 221 kts | 255° |
| 2026-05-08 06:28 | 47.66080 | -122.27576 | 6243 ft | 219 kts | 254° |
| 2026-05-08 06:29 | 47.65429 | -122.29573 | 5721 ft | 216 kts | 225° |
| 2026-05-08 06:29 | 47.64097 | -122.30501 | 5241 ft | 217 kts | 188° |
| 2026-05-08 06:29 | 47.62585 | -122.30607 | 5129 ft | 216 kts | 183° |
| 2026-05-08 06:29 | 47.61143 | -122.30643 | 4903 ft | 201 kts | 182° |
| 2026-05-08 06:30 | 47.59760 | -122.30665 | 4261 ft | 196 kts | 182° |
| 2026-05-08 06:30 | 47.58395 | -122.30686 | 3523 ft | 196 kts | 180° |
| 2026-05-08 06:30 | 47.57045 | -122.30664 | 2891 ft | 190 kts | 179° |
| 2026-05-08 06:30 | 47.55745 | -122.30654 | 2349 ft | 184 kts | 181° |
| 2026-05-08 06:31 | 47.54526 | -122.30688 | 2266 ft | 165 kts | 181° |
| 2026-05-08 06:31 | 47.53440 | -122.30714 | 1911 ft | 150 kts | 180° |
| 2026-05-08 06:31 | 47.52474 | -122.30691 | 1655 ft | 134 kts | 179° |
| 2026-05-08 06:31 | 47.51571 | -122.30698 | 1389 ft | 127 kts | 181° |
| 2026-05-08 06:32 | 47.50689 | -122.30734 | 1225 ft | 128 kts | 180° |
| 2026-05-08 06:32 | 47.49790 | -122.30739 | 1107 ft | 130 kts | 180° |
| 2026-05-08 06:32 | 47.48885 | -122.30753 | 980 ft | 129 kts | 180° |
| 2026-05-08 06:32 | 47.47980 | -122.30745 | 796 ft | 130 kts | 180° |
| 2026-05-08 06:33 | 47.47087 | -122.30770 | 594 ft | 127 kts | 181° |
| 2026-05-08 06:33 | 47.46215 | -122.30783 | 408 ft | 124 kts | 180° |
| 2026-05-08 06:33 | 47.45474 | -122.30786 | 393 ft | 83 kts | 179° |
| 2026-05-08 06:33 | 47.45097 | -122.30787 | 393 ft | 40 kts | 180° |
| 2026-05-08 06:34 | 47.44919 | -122.30758 | 393 ft | 22 kts | 134° |
| 2026-05-08 06:34 | 47.44911 | -122.30655 | 393 ft | 10 kts | 81° |
| 2026-05-08 06:34 | 47.44865 | -122.30627 | 393 ft | 17 kts | 181° |
| 2026-05-08 06:34 | 47.44811 | -122.30583 | 393 ft | 7 kts | 117° |
| 2026-05-08 06:35 | 47.44774 | -122.30542 | 393 ft | 7 kts | 167° |
| 2026-05-08 06:35 | 47.44724 | -122.30538 | 393 ft | 8 kts | 180° |
| 2026-05-08 06:35 | 47.44661 | -122.30538 | 393 ft | 10 kts | 180° |
| 2026-05-08 06:35 | 47.44578 | -122.30539 | 393 ft | 14 kts | 180° |
| 2026-05-08 06:36 | 47.44473 | -122.30540 | 393 ft | 17 kts | 181° |
| 2026-05-08 06:36 | 47.44350 | -122.30543 | 393 ft | 19 kts | 180° |
| 2026-05-08 06:36 | 47.44220 | -122.30544 | 393 ft | 18 kts | 180° |
| 2026-05-08 06:36 | 47.44096 | -122.30545 | 393 ft | 15 kts | 180° |
| 2026-05-08 06:37 | 47.44027 | -122.30546 | 393 ft | 9 kts | 180° |
| 2026-05-08 06:37 | 47.43991 | -122.30483 | 393 ft | 9 kts | 93° |
| 2026-05-08 06:37 | 47.43991 | -122.30390 | 393 ft | 9 kts | 87° |
| 2026-05-08 06:37 | 47.44002 | -122.30312 | 393 ft | 6 kts | 67° |
| 2026-05-08 06:38 | 47.44027 | -122.30266 | 393 ft | 6 kts | 33° |
| 2026-05-08 06:38 | 47.44064 | -122.30270 | 393 ft | 6 kts | 321° |
| 2026-05-08 06:38 | 47.44087 | -122.30303 | 393 ft | 3 kts | 312° |
| 2026-05-08 06:38 | 47.44090 | -122.30308 | 393 ft | 0 kts | 312° |